Time;durP1;ratioP1;P1;durP2;ratioP2;P2;SDS_P1;SDS_P2;PMS_P1;PMS_P2;Temp;Humidity;BMP_temperature;BMP_pressure;BME280_temperature;BME280_humidity;BME280_pressure;Samples;Min_cycle;Max_cycle;Signal;HPM_P1;HPM_P2
2022/08/04 00:00:18;;;;;;;1.95;1.85;;;22.40;82.50;;;;;;5078890;28;20075;-81
2022/08/04 00:03:02;;;;;;;1.75;1.65;;;22.30;82.90;;;;;;5078638;28;20064;-81
2022/08/04 00:05:43;;;;;;;2.15;1.67;;;22.30;83.30;;;;;;5076277;28;20103;-80
2022/08/04 00:08:20;;;;;;;;;;;22.20;83.60;;;;;;5077861;28;20033;-82
2022/08/04 00:10:49;;;;;;;2.20;1.98;;;22.20;84.00;;;;;;5089051;28;19912;-82
2022/08/04 00:13:21;;;;;;;5.88;2.00;;;22.20;84.50;;;;;;5087559;28;20055;-81
2022/08/04 00:15:50;;;;;;;2.33;1.98;;;22.10;84.80;;;;;;5087412;28;20035;-81
2022/08/04 00:18:20;;;;;;;2.53;2.05;;;22.10;85.50;;;;;;5088289;28;20380;-89
2022/08/04 00:20:45;;;;;;;4.03;2.00;;;22.00;85.60;;;;;;5077150;28;20501;-88
2022/08/04 00:23:12;;;;;;;1.67;1.58;;;22.00;85.90;;;;;;5075843;28;20059;-89
2022/08/04 00:25:40;;;;;;;1.98;1.88;;;22.00;86.30;;;;;;5087300;28;20397;-89
2022/08/04 00:28:06;;;;;;;2.00;1.80;;;22.00;86.70;;;;;;5082313;28;20038;-88
2022/08/04 00:30:31;;;;;;;1.77;1.67;;;21.90;86.90;;;;;;5088327;28;20024;-87
2022/08/04 00:32:58;;;;;;;1.70;1.60;;;21.90;87.30;;;;;;5094017;28;20493;-87
2022/08/04 00:35:25;;;;;;;1.80;1.70;;;21.90;87.60;;;;;;5091306;28;20028;-86
2022/08/04 00:37:52;;;;;;;1.73;1.55;;;21.80;88.10;;;;;;5073586;28;20029;-87
2022/08/04 00:40:27;;;;;;;2.65;1.80;;;21.80;88.40;;;;;;5077251;28;20474;-89
2022/08/04 00:43:22;;;;;;;2.67;1.80;;;21.80;89.10;;;;;;5089259;28;20032;-89
2022/08/04 00:45:51;;;;;;;3.00;1.92;;;21.70;89.50;;;;;;5083772;28;20031;-90
2022/08/04 00:48:59;;;;;;;1.60;1.50;;;21.70;89.70;;;;;;5067976;28;20032;-89
2022/08/04 00:51:34;;;;;;;1.67;1.40;;;21.70;90.00;;;;;;5083910;28;20028;-89
2022/08/04 00:54:26;;;;;;;1.40;1.30;;;21.70;89.60;;;;;;5085892;28;20730;-88
2022/08/04 00:57:27;;;;;;;1.73;1.42;;;21.70;89.80;;;;;;5096051;28;20484;-90
2022/08/04 01:00:02;;;;;;;1.85;1.75;;;21.70;90.00;;;;;;5107711;28;20054;-89
2022/08/04 01:02:46;;;;;;;1.50;1.40;;;21.70;90.20;;;;;;5107375;28;20012;-88
2022/08/04 01:05:23;;;;;;;2.55;1.45;;;21.60;90.40;;;;;;5089379;28;20036;-89
2022/08/04 01:08:27;;;;;;;1.98;1.80;;;21.60;90.50;;;;;;5078867;28;20064;-92
2022/08/04 01:11:22;;;;;;;2.50;1.65;;;21.50;90.90;;;;;;5085134;28;20043;-92
2022/08/04 01:14:14;;;;;;;1.70;1.60;;;21.50;91.30;;;;;;5067561;28;20063;-89
2022/08/04 01:16:51;;;;;;;2.58;1.70;;;21.40;91.40;;;;;;5093078;28;20484;-88
2022/08/04 01:19:46;;;;;;;1.70;1.60;;;21.40;91.70;;;;;;5077001;28;20020;-87
2022/08/04 01:22:27;;;;;;;2.10;1.90;;;21.30;92.20;;;;;;5065689;28;20051;-87
2022/08/04 01:25:30;;;;;;;2.10;1.77;;;21.30;92.50;;;;;;5094663;28;20028;-87
2022/08/04 01:28:17;;;;;;;2.05;1.60;;;21.30;92.90;;;;;;5087444;28;20411;-89
2022/08/04 01:30:47;;;;;;;2.75;1.92;;;21.20;93.40;;;;;;5102704;28;20039;-86
2022/08/04 01:33:15;;;;;;;2.28;2.08;;;21.20;93.80;;;;;;5075968;28;20092;-84
2022/08/04 01:35:54;;;;;;;2.30;2.10;;;21.20;94.00;;;;;;5105775;28;20056;-83
2022/08/04 01:38:39;;;;;;;2.50;2.30;;;21.20;94.70;;;;;;5088421;28;20032;-85
2022/08/04 01:41:05;;;;;;;3.47;2.70;;;21.20;95.30;;;;;;5108561;28;20107;-84
2022/08/04 01:43:39;;;;;;;4.45;2.13;;;21.10;95.50;;;;;;5096200;28;20088;-84
2022/08/04 01:46:05;;;;;;;3.38;2.40;;;21.10;95.90;;;;;;5093289;28;20520;-86
2022/08/04 01:48:31;;;;;;;3.03;1.95;;;21.10;96.30;;;;;;5066004;28;20040;-88
2022/08/04 01:51:05;;;;;;;2.05;1.70;;;21.10;96.50;;;;;;5080558;28;20032;-87
2022/08/04 01:53:33;;;;;;;2.40;1.88;;;21.00;96.80;;;;;;5091519;28;20706;-87
2022/08/04 01:56:01;;;;;;;5.30;2.17;;;21.10;97.10;;;;;;5079800;28;20032;-88
2022/08/04 01:58:30;;;;;;;2.50;2.00;;;21.00;97.50;;;;;;5085705;28;20119;-89
2022/08/04 02:01:03;;;;;;;3.28;2.08;;;21.00;97.70;;;;;;5087155;28;20030;-89
2022/08/04 02:03:30;;;;;;;2.45;2.25;;;21.00;97.90;;;;;;5079687;28;20027;-89
2022/08/04 02:06:14;;;;;;;2.45;2.13;;;20.90;98.40;;;;;;5084148;28;20218;-89
2022/08/04 02:08:53;;;;;;;3.15;2.22;;;20.90;98.70;;;;;;5061520;28;20070;-89
2022/08/04 02:11:23;;;;;;;1.77;1.67;;;20.90;98.90;;;;;;5067934;28;20085;-85
2022/08/04 02:14:01;;;;;;;1.95;1.75;;;20.80;99.20;;;;;;5092841;28;20036;-86
2022/08/04 02:16:39;;;;;;;2.33;1.80;;;20.70;99.50;;;;;;5087036;28;20039;-87
2022/08/04 02:19:23;;;;;;;2.75;1.95;;;20.70;99.80;;;;;;5071328;28;20036;-88
2022/08/04 02:22:01;;;;;;;2.10;1.90;;;20.70;99.90;;;;;;5100630;28;20016;-85
2022/08/04 02:24:30;;;;;;;2.78;1.90;;;20.70;99.90;;;;;;5098241;28;20096;-86
2022/08/04 02:26:57;;;;;;;2.53;2.33;;;20.70;99.90;;;;;;5097001;28;20059;-85
2022/08/04 02:29:54;;;;;;;3.22;1.95;;;20.70;99.90;;;;;;5108198;28;20046;-85
2022/08/04 02:32:26;;;;;;;1.80;1.70;;;20.70;99.90;;;;;;5070988;28;20043;-88
2022/08/04 02:35:02;;;;;;;2.60;1.85;;;20.70;99.90;;;;;;5087448;28;20028;-88
2022/08/04 02:37:30;;;;;;;2.70;1.90;;;20.70;99.90;;;;;;5079052;28;20193;-85
2022/08/04 02:39:59;;;;;;;2.00;1.77;;;20.70;99.90;;;;;;5081067;28;20480;-88
2022/08/04 02:42:27;;;;;;;1.88;1.42;;;20.70;99.90;;;;;;5084149;28;20028;-88
2022/08/04 02:44:57;;;;;;;2.45;2.10;;;20.60;99.90;;;;;;5075819;28;20151;-88
2022/08/04 02:47:25;;;;;;;2.00;1.83;;;20.60;99.90;;;;;;5089005;28;20055;-88
2022/08/04 02:49:52;;;;;;;4.38;2.13;;;20.60;99.90;;;;;;5087006;28;20084;-87
2022/08/04 02:52:18;;;;;;;2.13;1.70;;;20.60;99.90;;;;;;5099739;28;20036;-86
2022/08/04 02:54:47;;;;;;;2.25;1.55;;;20.60;99.90;;;;;;5090834;28;20080;-87
2022/08/04 02:57:16;;;;;;;2.17;2.00;;;20.60;99.90;;;;;;5093195;28;20035;-84
2022/08/04 03:00:03;;;;;;;2.70;2.00;;;20.60;99.90;;;;;;5084057;28;20438;-86
2022/08/04 03:02:41;;;;;;;2.40;1.70;;;20.60;99.90;;;;;;5057487;28;20024;-86
2022/08/04 03:05:16;;;;;;;3.08;1.65;;;20.60;99.90;;;;;;5072392;28;20149;-88
2022/08/04 03:07:59;;;;;;;3.10;1.95;;;20.60;99.90;;;;;;5085039;28;20097;-88
2022/08/04 03:10:57;;;;;;;1.70;1.50;;;20.60;99.90;;;;;;5090955;28;20024;-88
2022/08/04 03:13:47;;;;;;;2.70;1.73;;;20.60;99.90;;;;;;5058827;28;20146;-88
2022/08/04 03:16:34;;;;;;;2.38;2.08;;;20.50;99.90;;;;;;5083520;28;20075;-85
2022/08/04 03:19:08;;;;;;;1.67;1.58;;;20.50;99.90;;;;;;5065416;28;20123;-87
2022/08/04 03:21:49;;;;;;;1.88;1.73;;;20.50;99.90;;;;;;5073126;28;20020;-86
2022/08/04 03:24:26;;;;;;;2.85;1.70;;;20.50;99.90;;;;;;5085206;28;20110;-84
2022/08/04 03:27:04;;;;;;;3.08;1.55;;;20.50;99.90;;;;;;5071730;28;20032;-87
2022/08/04 03:29:35;;;;;;;2.53;1.50;;;20.50;99.90;;;;;;5076887;28;20032;-88
2022/08/04 03:32:11;;;;;;;2.17;1.70;;;20.50;99.90;;;;;;5083243;28;20042;-88
2022/08/04 03:35:01;;;;;;;2.58;1.67;;;20.50;99.90;;;;;;5060327;28;20029;-88
2022/08/04 03:38:01;;;;;;;1.38;1.23;;;20.50;99.90;;;;;;5066983;28;20028;-88
2022/08/04 03:41:03;;;;;;;2.97;1.65;;;20.50;99.90;;;;;;5078831;28;20039;-88
2022/08/04 03:43:53;;;;;;;2.55;1.70;;;20.50;99.90;;;;;;5083032;28;20040;-88
2022/08/04 03:47:13;;;;;;;2.88;2.13;;;20.50;99.90;;;;;;5083901;28;20504;-87
2022/08/04 03:49:44;;;;;;;2.47;1.73;;;20.50;99.90;;;;;;4998065;28;20044;-88
2022/08/04 03:55:09;;;;;;;2.25;1.60;;;20.40;99.90;;;;;;5067290;28;20044;-87
2022/08/04 03:58:10;;;;;;;4.47;1.63;;;20.40;99.90;;;;;;5084117;28;20153;-89
2022/08/04 04:00:43;;;;;;;2.05;1.85;;;20.40;99.90;;;;;;5081046;28;20857;-89
2022/08/04 04:03:39;;;;;;;2.25;1.80;;;20.30;99.90;;;;;;5084038;28;20069;-89
2022/08/04 04:06:29;;;;;;;1.38;1.20;;;20.30;99.90;;;;;;5078890;28;20111;-87
2022/08/04 04:09:10;;;;;;;2.60;1.60;;;20.30;99.90;;;;;;5075869;28;20036;-87
2022/08/04 04:12:02;;;;;;;2.10;1.58;;;20.30;99.90;;;;;;5086132;28;20028;-87
2022/08/04 04:14:55;;;;;;;1.65;1.40;;;20.30;99.90;;;;;;5065011;28;20039;-87
2022/08/04 04:17:49;;;;;;;2.00;1.80;;;20.20;99.90;;;;;;5071298;28;20103;-87
2022/08/04 04:20:17;;;;;;;2.20;1.58;;;20.20;99.90;;;;;;5082064;28;20031;-86
2022/08/04 04:23:10;;;;;;;3.38;1.65;;;20.20;99.90;;;;;;5049505;28;1087077;-88
2022/08/04 04:25:48;;;;;;;1.88;1.55;;;20.20;99.90;;;;;;5081668;28;20032;-88
2022/08/04 04:28:48;;;;;;;2.97;1.73;;;20.20;99.90;;;;;;5067597;28;20039;-85
2022/08/04 04:31:17;;;;;;;1.83;1.48;;;20.20;99.90;;;;;;5081277;28;20119;-84
2022/08/04 04:34:01;;;;;;;2.13;1.90;;;20.20;99.90;;;;;;5087743;28;20032;-88
2022/08/04 04:36:31;;;;;;;2.60;1.80;;;20.30;99.90;;;;;;5078425;28;20036;-88
2022/08/04 04:39:29;;;;;;;5.10;2.00;;;20.30;99.90;;;;;;5077510;28;20040;-88
2022/08/04 04:42:07;;;;;;;1.83;1.63;;;20.30;99.90;;;;;;5070263;28;20496;-87
2022/08/04 04:44:48;;;;;;;1.50;1.40;;;20.40;99.90;;;;;;5089568;28;20016;-86
2022/08/04 04:47:36;;;;;;;1.92;1.50;;;20.40;99.90;;;;;;5074728;28;20039;-88
2022/08/04 04:50:29;;;;;;;1.90;1.67;;;20.40;99.90;;;;;;5073748;28;20028;-87
2022/08/04 04:53:19;;;;;;;1.80;1.58;;;20.50;99.90;;;;;;5084512;28;20140;-87
2022/08/04 04:55:54;;;;;;;2.47;1.83;;;20.60;99.90;;;;;;5087052;28;20050;-87
2022/08/04 04:58:22;;;;;;;1.75;1.50;;;20.60;99.90;;;;;;5085817;28;20036;-88
2022/08/04 05:01:27;;;;;;;4.13;1.80;;;20.70;99.90;;;;;;5089910;28;20042;-88
2022/08/04 05:04:24;;;;;;;2.50;1.70;;;20.80;99.90;;;;;;5070480;28;20033;-88
2022/08/04 05:07:01;;;;;;;3.47;2.00;;;20.90;99.90;;;;;;5090986;28;20028;-88
2022/08/04 05:09:42;;;;;;;2.13;1.90;;;21.00;99.90;;;;;;5096443;28;20024;-87
2022/08/04 05:12:32;;;;;;;2.15;1.50;;;21.10;99.90;;;;;;5093624;28;20028;-85
2022/08/04 05:15:00;;;;;;;1.95;1.75;;;21.20;99.90;;;;;;5092421;28;20032;-84
2022/08/04 05:17:35;;;;;;;4.78;1.85;;;21.30;99.90;;;;;;5081757;28;20043;-86
2022/08/04 05:20:13;;;;;;;1.80;1.70;;;21.40;99.90;;;;;;5089647;28;20078;-87
2022/08/04 05:23:00;;;;;;;1.85;1.75;;;21.50;99.90;;;;;;5081182;28;20170;-87
2022/08/04 05:25:48;;;;;;;2.85;2.40;;;21.60;99.90;;;;;;5089263;28;20047;-88
2022/08/04 05:28:23;;;;;;;2.13;1.90;;;21.70;99.90;;;;;;5090650;28;20028;-92
2022/08/04 05:30:56;;;;;;;8.35;2.25;;;21.80;99.80;;;;;;5086832;28;20071;-88
2022/08/04 05:33:26;;;;;;;3.33;2.55;;;21.90;99.60;;;;;;5069540;28;20431;-87
2022/08/04 05:35:54;;;;;;;;;;;22.00;99.70;;;;;;5066410;28;20067;-88
2022/08/04 05:38:26;;;;;;;4.13;2.38;;;22.10;99.60;;;;;;5068701;28;20304;-85
2022/08/04 05:40:53;;;;;;;12.13;2.83;;;22.20;99.40;;;;;;5064300;28;20104;-89
2022/08/04 05:43:21;;;;;;;2.67;2.22;;;22.30;99.20;;;;;;5060142;28;20033;-85
2022/08/04 05:45:47;;;;;;;2.58;2.03;;;22.40;99.10;;;;;;5062102;28;20036;-88
2022/08/04 05:48:15;;;;;;;2.65;2.25;;;22.50;99.00;;;;;;5053562;28;20040;-89
2022/08/04 05:50:42;;;;;;;2.30;2.10;;;22.70;98.90;;;;;;5065769;28;20126;-89
2022/08/04 05:53:10;;;;;;;2.42;2.22;;;22.80;98.80;;;;;;5076640;28;20107;-91
2022/08/04 05:55:36;;;;;;;3.50;2.33;;;22.90;98.60;;;;;;5064603;28;20033;-87
2022/08/04 05:58:02;;;;;;;2.92;2.30;;;23.00;98.30;;;;;;5067176;28;20040;-92
2022/08/04 06:00:29;;;;;;;4.25;2.45;;;23.10;98.20;;;;;;5065409;28;20047;-88
2022/08/04 06:02:56;;;;;;;5.22;2.90;;;23.20;98.00;;;;;;5066775;28;20097;-86
2022/08/04 06:05:23;;;;;;;5.60;2.50;;;23.30;97.70;;;;;;5073717;28;20358;-85
2022/08/04 06:07:49;;;;;;;6.75;2.45;;;23.50;97.40;;;;;;5074570;28;20032;-85
2022/08/04 06:10:15;;;;;;;3.15;2.35;;;23.60;97.30;;;;;;5083091;28;20458;-83
2022/08/04 06:12:55;;;;;;;3.75;2.30;;;23.60;97.30;;;;;;5061434;28;20082;-85
2022/08/04 06:15:24;;;;;;;4.63;2.58;;;23.80;97.10;;;;;;5055049;28;20486;-82
2022/08/04 06:18:00;;;;;;;3.40;2.67;;;23.90;96.80;;;;;;5059784;28;20039;-87
2022/08/04 06:20:35;;;;;;;5.43;2.60;;;24.00;96.40;;;;;;5040779;28;20388;-85
2022/08/04 06:23:15;;;;;;;3.83;2.45;;;24.10;96.70;;;;;;5058608;28;20049;-79
2022/08/04 06:25:50;;;;;;;6.10;2.42;;;24.30;96.70;;;;;;5070320;28;20025;-78
2022/08/04 06:28:17;;;;;;;3.20;2.45;;;24.40;96.70;;;;;;5063643;28;20060;-77
2022/08/04 06:30:49;;;;;;;5.35;2.67;;;24.60;96.60;;;;;;5072335;28;20040;-76
2022/08/04 06:33:51;;;;;;;5.45;2.80;;;24.70;96.20;;;;;;5062141;28;20546;-77
2022/08/04 06:36:11;;;;;;;5.72;2.70;;;24.80;96.30;;;;;;5063743;28;20070;-75
2022/08/04 06:38:36;;;;;;;5.22;2.38;;;24.90;96.10;;;;;;5061452;28;20159;-75
2022/08/04 06:41:08;;;;;;;5.70;2.45;;;25.00;95.90;;;;;;5066507;28;20469;-77
2022/08/04 06:43:35;;;;;;;5.05;2.88;;;25.10;95.80;;;;;;5067993;28;20051;-76
2022/08/04 06:46:01;;;;;;;7.07;2.30;;;25.20;95.70;;;;;;5069038;28;20051;-76
2022/08/04 06:48:28;;;;;;;6.28;2.58;;;25.30;95.90;;;;;;5072250;28;20101;-76
2022/08/04 06:50:55;;;;;;;3.03;2.40;;;25.40;95.60;;;;;;5066086;28;20031;-86
2022/08/04 06:53:21;;;;;;;5.28;2.85;;;25.50;95.50;;;;;;5042836;28;20055;-80
2022/08/04 06:55:48;;;;;;;3.78;2.55;;;25.60;95.40;;;;;;5077149;28;20085;-81
2022/08/04 06:58:15;;;;;;;5.20;2.80;;;25.70;95.40;;;;;;5070936;28;20021;-83
2022/08/04 07:00:42;;;;;;;3.85;2.80;;;25.80;95.40;;;;;;5065973;28;20033;-81
2022/08/04 07:03:09;;;;;;;7.43;2.67;;;25.80;95.00;;;;;;5061866;28;20037;-80
2022/08/04 07:05:35;;;;;;;8.02;2.80;;;26.00;94.90;;;;;;5071154;28;20021;-81
2022/08/04 07:08:01;;;;;;;3.67;2.72;;;26.10;94.50;;;;;;5046262;28;20598;-86
2022/08/04 07:10:27;;;;;;;6.90;2.85;;;26.10;94.50;;;;;;5044321;28;20068;-81
2022/08/04 07:12:55;;;;;;;4.75;2.83;;;26.20;94.40;;;;;;5076229;28;20037;-82
2022/08/04 07:15:22;;;;;;;6.88;2.97;;;26.20;94.40;;;;;;5059922;28;20032;-81
2022/08/04 07:17:49;;;;;;;7.18;2.58;;;26.30;94.10;;;;;;5071841;28;20077;-80
2022/08/04 07:20:15;;;;;;;6.85;2.60;;;26.50;94.10;;;;;;5063065;28;20025;-80
2022/08/04 07:22:42;;;;;;;9.70;3.38;;;26.60;94.20;;;;;;5065511;28;20172;-79
2022/08/04 07:25:09;;;;;;;7.53;2.70;;;26.70;94.00;;;;;;5072664;28;20025;-78
2022/08/04 07:27:35;;;;;;;6.43;3.08;;;26.90;93.60;;;;;;5063557;28;20025;-80
2022/08/04 07:30:04;;;;;;;7.10;2.95;;;27.00;93.70;;;;;;5058559;28;20044;-79
2022/08/04 07:32:31;;;;;;;5.78;2.92;;;27.10;93.30;;;;;;5077501;28;20165;-83
2022/08/04 07:34:57;;;;;;;7.22;3.30;;;27.30;92.90;;;;;;5064831;28;20108;-79
2022/08/04 07:37:23;;;;;;;6.82;2.97;;;27.50;93.00;;;;;;5045431;28;20123;-87
2022/08/04 07:39:49;;;;;;;3.35;2.50;;;27.60;92.30;;;;;;5057148;28;20024;-81
2022/08/04 07:42:18;;;;;;;6.15;2.92;;;27.80;91.70;;;;;;5062900;28;20032;-81
2022/08/04 07:44:45;;;;;;;3.45;2.10;;;27.90;91.30;;;;;;5104255;28;20636;-80
2022/08/04 07:47:11;;;;;;;2.47;2.03;;;28.00;91.30;;;;;;5101935;28;20400;-80
2022/08/04 07:49:37;;;;;;;10.38;3.10;;;28.10;87.60;;;;;;5110869;28;20040;-80
2022/08/04 07:52:05;;;;;;;7.22;2.78;;;28.40;90.00;;;;;;5114519;28;20107;-80
2022/08/04 07:54:32;;;;;;;3.60;2.33;;;28.50;89.10;;;;;;5104234;28;20039;-81
2022/08/04 07:56:58;;;;;;;6.78;2.70;;;28.70;87.80;;;;;;5090464;28;20027;-79
2022/08/04 07:59:24;;;;;;;3.33;2.00;;;28.90;84.60;;;;;;5087833;28;20461;-86
2022/08/04 08:01:50;;;;;;;4.47;1.75;;;29.10;82.60;;;;;;5082560;28;20035;-80
2022/08/04 08:04:16;;;;;;;3.67;2.40;;;29.30;80.60;;;;;;5081909;28;20024;-81
2022/08/04 08:06:42;;;;;;;4.45;2.10;;;29.50;79.80;;;;;;5089913;28;20024;-82
2022/08/04 08:09:20;;;;;;;9.32;2.28;;;29.70;78.60;;;;;;5078926;28;20028;-83
2022/08/04 08:11:48;;;;;;;4.13;1.80;;;29.80;78.00;;;;;;5086094;28;20036;-83
2022/08/04 08:14:18;;;;;;;2.13;1.73;;;30.00;77.50;;;;;;5092438;28;20059;-83
2022/08/04 08:16:45;;;;;;;5.88;2.10;;;30.20;76.70;;;;;;5090097;28;20032;-82
2022/08/04 08:19:11;;;;;;;3.38;2.03;;;30.30;75.60;;;;;;5096861;28;20099;-83
2022/08/04 08:21:37;;;;;;;3.85;2.20;;;30.50;75.30;;;;;;5107974;28;20478;-83
2022/08/04 08:24:03;;;;;;;6.63;1.92;;;30.60;83.10;;;;;;5081784;28;20033;-82
2022/08/04 08:26:29;;;;;;;2.80;2.05;;;31.00;89.00;;;;;;5072710;28;20052;-84
2022/08/04 08:28:56;;;;;;;4.35;2.20;;;30.90;85.00;;;;;;5087796;28;20044;-84
2022/08/04 08:31:21;;;;;;;3.55;1.92;;;30.80;81.70;;;;;;5070936;28;20139;-83
2022/08/04 08:33:49;;;;;;;4.28;2.55;;;31.10;73.30;;;;;;5074975;28;20066;-82
2022/08/04 08:36:29;;;;;;;4.10;1.80;;;31.20;73.10;;;;;;5075746;28;20470;-82
2022/08/04 08:39:02;;;;;;;2.47;2.03;;;31.30;72.90;;;;;;5079759;28;20024;-85
2022/08/04 08:41:47;;;;;;;6.32;2.10;;;31.40;72.40;;;;;;5072444;28;20437;-84
2022/08/04 08:44:33;;;;;;;8.52;2.65;;;31.50;72.40;;;;;;5072149;28;20027;-87
2022/08/04 08:47:17;;;;;;;4.32;2.22;;;31.60;71.00;;;;;;5077589;28;20039;-88
2022/08/04 08:50:18;;;;;;;4.38;2.13;;;31.70;71.10;;;;;;5088354;28;20058;-91
2022/08/04 08:53:12;;;;;;;4.22;2.10;;;31.80;70.70;;;;;;5074179;28;20104;-84
2022/08/04 08:56:17;;;;;;;4.70;1.85;;;31.90;69.70;;;;;;5082405;28;20108;-83
2022/08/04 08:59:21;;;;;;;5.63;2.22;;;32.10;69.60;;;;;;5079033;28;20024;-83
2022/08/04 09:02:32;;;;;;;4.03;2.28;;;32.30;69.50;;;;;;5086245;28;20024;-83
2022/08/04 09:05:14;;;;;;;10.23;2.50;;;32.50;69.30;;;;;;5093992;28;20028;-84
2022/08/04 09:08:05;;;;;;;4.22;1.95;;;32.60;69.00;;;;;;5085194;28;20033;-85
2022/08/04 09:10:53;;;;;;;4.60;2.00;;;32.60;68.60;;;;;;5085957;28;20024;-84
2022/08/04 09:13:26;;;;;;;3.05;2.42;;;32.70;68.70;;;;;;5073687;28;20056;-82
2022/08/04 09:16:34;;;;;;;9.27;2.45;;;32.80;86.50;;;;;;5065480;28;20104;-82
2022/08/04 09:19:09;;;;;;;4.28;2.22;;;33.00;68.40;;;;;;5087452;28;20059;-84
2022/08/04 09:21:46;;;;;;;10.15;2.30;;;33.00;68.60;;;;;;5074156;28;20036;-85
2022/08/04 09:24:21;;;;;;;2.42;2.08;;;33.20;67.90;;;;;;5076861;28;20054;-85
2022/08/04 09:26:59;;;;;;;4.70;1.90;;;33.30;67.60;;;;;;5114157;28;20064;-83
2022/08/04 09:29:43;;;;;;;3.65;2.00;;;33.40;67.20;;;;;;5080912;28;20032;-86
2022/08/04 09:32:30;;;;;;;4.82;2.67;;;33.50;66.80;;;;;;5073176;28;20021;-83
2022/08/04 09:35:11;;;;;;;3.65;2.15;;;33.60;66.50;;;;;;5078033;28;20054;-84
2022/08/04 09:38:08;;;;;;;3.67;1.90;;;33.70;66.30;;;;;;5072717;28;20032;-83
2022/08/04 09:40:55;;;;;;;3.38;2.70;;;33.80;65.90;;;;;;5056064;28;20029;-86
2022/08/04 09:43:39;;;;;;;6.65;2.00;;;33.90;65.20;;;;;;5079554;28;20039;-84
2022/08/04 09:46:14;;;;;;;3.28;2.08;;;34.00;64.50;;;;;;5086305;28;20060;-82
2022/08/04 09:49:04;;;;;;;3.58;2.20;;;34.20;64.00;;;;;;5077240;28;20032;-83
2022/08/04 09:51:44;;;;;;;3.78;2.22;;;34.30;62.10;;;;;;5081856;28;20028;-82
2022/08/04 09:54:32;;;;;;;2.92;1.80;;;34.40;61.80;;;;;;5065136;28;20036;-80
2022/08/04 09:57:30;;;;;;;3.90;1.92;;;34.40;61.60;;;;;;5059388;28;20040;-80
2022/08/04 10:00:01;;;;;;;2.47;1.90;;;34.60;60.40;;;;;;5063327;28;20063;-80
2022/08/04 10:02:33;;;;;;;10.43;2.35;;;34.70;60.00;;;;;;5078324;28;20024;-82
2022/08/04 10:05:02;;;;;;;3.65;2.38;;;34.70;60.50;;;;;;5075535;28;20053;-80
2022/08/04 10:07:44;;;;;;;1.95;1.75;;;34.80;60.80;;;;;;5077362;28;20476;-83
2022/08/04 10:10:39;;;;;;;5.53;2.40;;;34.80;60.80;;;;;;5087486;28;20085;-80
2022/08/04 10:13:11;;;;;;;4.20;2.13;;;35.00;60.50;;;;;;5071366;28;20036;-82
2022/08/04 10:15:55;;;;;;;3.97;2.58;;;35.10;60.70;;;;;;5073198;28;20115;-81
2022/08/04 10:18:38;;;;;;;6.50;2.10;;;35.20;59.10;;;;;;5071579;28;20469;-81
2022/08/04 10:21:21;;;;;;;2.70;1.92;;;35.30;58.30;;;;;;5081785;28;20029;-81
2022/08/04 10:24:08;;;;;;;6.20;1.90;;;35.40;57.80;;;;;;5082154;28;20112;-81
2022/08/04 10:26:46;;;;;;;5.00;2.25;;;35.40;58.10;;;;;;5075308;28;20163;-86
2022/08/04 10:29:26;;;;;;;2.95;2.15;;;35.50;57.00;;;;;;5075364;28;20029;-81
2022/08/04 10:32:03;;;;;;;;;;;35.60;56.00;;;;;;5064483;28;20037;-78
2022/08/04 10:34:41;;;;;;;2.50;2.20;;;35.70;55.70;;;;;;5058449;28;19908;-77
2022/08/04 10:37:23;;;;;;;3.38;2.25;;;35.80;55.80;;;;;;5067545;28;20044;-79
2022/08/04 10:43:00;;;;;;;1.92;1.60;;;35.80;55.30;;;;;;5065301;28;20079;-82
2022/08/04 10:45:44;;;;;;;6.35;1.88;;;35.90;54.50;;;;;;5081481;28;20414;-81
2022/08/04 10:48:27;;;;;;;2.33;1.85;;;36.00;54.10;;;;;;5071707;28;20029;-84
2022/08/04 10:51:15;;;;;;;1.80;1.70;;;36.10;53.40;;;;;;5079928;28;20028;-80
2022/08/04 10:53:42;;;;;;;1.60;1.50;;;36.30;52.60;;;;;;5070177;28;20021;-77
2022/08/04 10:56:14;;;;;;;2.08;1.70;;;36.30;52.70;;;;;;5070363;28;20107;-79
2022/08/04 10:58:45;;;;;;;2.50;1.95;;;36.10;53.40;;;;;;5069227;28;20024;-80
2022/08/04 11:01:20;;;;;;;2.03;1.92;;;36.00;54.10;;;;;;5067395;28;20027;-81
2022/08/04 11:03:56;;;;;;;3.10;1.80;;;36.10;54.10;;;;;;5061293;28;20028;-80
2022/08/04 11:06:24;;;;;;;2.25;2.05;;;36.30;53.80;;;;;;5075302;28;20119;-82
2022/08/04 11:08:54;;;;;;;1.95;1.80;;;36.40;53.50;;;;;;5069595;28;20025;-80
2022/08/04 11:11:36;;;;;;;8.55;2.35;;;36.40;53.40;;;;;;5065094;28;20016;-81
2022/08/04 11:14:03;;;;;;;16.30;2.53;;;36.70;53.10;;;;;;5076453;28;20034;-80
2022/08/04 11:16:53;;;;;;;6.60;2.08;;;36.80;52.40;;;;;;5055700;28;20086;-84
2022/08/04 11:20:11;;;;;;;6.88;2.20;;;36.90;52.10;;;;;;5072152;28;20037;-81
2022/08/04 11:22:54;;;;;;;3.05;2.15;;;37.00;51.60;;;;;;5020074;28;20078;-80
2022/08/04 11:25:34;;;;;;;3.92;1.80;;;37.00;51.30;;;;;;5020251;28;20566;-83
2022/08/04 11:28:11;;;;;;;10.15;2.17;;;37.00;50.80;;;;;;5012510;28;20152;-84
2022/08/04 11:30:46;;;;;;;3.05;1.90;;;37.10;51.30;;;;;;5016925;28;20089;-83
2022/08/04 11:33:22;;;;;;;1.90;1.77;;;37.20;50.90;;;;;;5020844;28;20038;-81
2022/08/04 11:36:10;;;;;;;2.92;1.92;;;37.50;50.70;;;;;;5014812;28;20029;-82
2022/08/04 11:38:55;;;;;;;6.97;2.10;;;37.50;50.80;;;;;;5015054;28;20080;-82
2022/08/04 11:41:38;;;;;;;2.20;1.83;;;37.80;50.50;;;;;;5011321;28;20041;-81
2022/08/04 11:44:06;;;;;;;2.08;1.80;;;37.90;50.20;;;;;;5014019;28;20034;-82
2022/08/04 11:46:41;;;;;;;3.20;2.42;;;38.10;49.80;;;;;;5005314;28;20042;-81
2022/08/04 11:49:35;;;;;;;3.42;2.05;;;38.10;49.20;;;;;;5015046;28;20518;-81
2022/08/04 11:52:02;;;;;;;2.78;1.90;;;38.10;49.20;;;;;;5013814;28;20499;-82
2022/08/04 11:54:32;;;;;;;1.90;1.80;;;38.20;49.10;;;;;;5069599;28;20100;-79
2022/08/04 11:56:57;;;;;;;2.17;1.95;;;38.10;48.90;;;;;;5074433;28;20096;-80
2022/08/04 11:59:26;;;;;;;4.50;1.83;;;38.30;49.00;;;;;;5070447;28;20615;-82
2022/08/04 12:02:29;;;;;;;2.72;1.80;;;38.50;49.10;;;;;;5069016;28;20029;-84
2022/08/04 12:04:58;;;;;;;1.77;1.67;;;38.60;48.50;;;;;;5085909;28;20120;-84
2022/08/04 12:08:02;;;;;;;3.22;1.60;;;38.70;48.10;;;;;;5080219;28;20047;-84
2022/08/04 12:10:50;;;;;;;3.42;1.95;;;39.00;47.40;;;;;;5066109;28;20061;-82
2022/08/04 12:13:39;;;;;;;3.40;2.00;;;39.10;47.20;;;;;;5069892;28;20078;-82
2022/08/04 12:16:23;;;;;;;4.18;1.73;;;39.10;47.10;;;;;;5063073;28;20279;-80
2022/08/04 12:19:04;;;;;;;8.85;2.40;;;38.60;46.80;;;;;;5066798;28;20581;-79
2022/08/04 12:21:48;;;;;;;2.85;1.90;;;38.30;47.30;;;;;;5074414;28;20048;-82
2022/08/04 12:24:24;;;;;;;4.85;1.83;;;37.60;48.30;;;;;;5070844;28;20070;-81
2022/08/04 12:26:58;;;;;;;3.03;1.60;;;37.30;48.50;;;;;;5082367;28;20103;-81
2022/08/04 12:29:26;;;;;;;4.28;1.80;;;37.20;49.00;;;;;;5089238;28;20069;-81
2022/08/04 12:31:57;;;;;;;3.17;2.10;;;37.40;48.90;;;;;;5063437;28;20024;-81
2022/08/04 12:34:43;;;;;;;3.15;1.98;;;37.30;49.50;;;;;;5072904;28;20102;-82
2022/08/04 12:37:29;;;;;;;2.28;2.05;;;37.10;49.10;;;;;;5073660;28;20047;-80
2022/08/04 12:40:00;;;;;;;3.20;1.90;;;37.00;49.80;;;;;;5078773;28;20031;-81
2022/08/04 12:43:00;;;;;;;5.63;2.25;;;36.90;50.00;;;;;;5077106;28;20029;-81
2022/08/04 12:45:28;;;;;;;2.17;1.77;;;37.00;49.50;;;;;;5068688;28;20045;-80
2022/08/04 12:47:57;;;;;;;2.47;1.98;;;37.00;49.20;;;;;;5071802;28;20079;-81
2022/08/04 12:50:24;;;;;;;1.70;1.60;;;36.90;49.30;;;;;;5081162;28;20079;-80
2022/08/04 12:52:56;;;;;;;1.88;1.77;;;36.60;49.60;;;;;;5080232;28;20035;-78
2022/08/04 12:55:28;;;;;;;4.43;2.00;;;36.40;49.60;;;;;;5068434;28;20084;-78
2022/08/04 12:57:55;;;;;;;4.22;2.10;;;36.30;49.90;;;;;;5074440;28;20033;-81
2022/08/04 13:00:37;;;;;;;3.75;2.22;;;36.20;49.70;;;;;;5078496;28;20156;-77
2022/08/04 13:03:13;;;;;;;3.13;2.28;;;36.20;50.40;;;;;;5076106;28;20025;-80
2022/08/04 13:05:40;;;;;;;4.85;2.20;;;36.10;49.50;;;;;;5084116;28;20033;-82
2022/08/04 13:08:08;;;;;;;3.53;2.00;;;36.30;49.70;;;;;;5073681;28;20393;-81
2022/08/04 13:10:40;;;;;;;3.83;2.35;;;36.50;49.70;;;;;;5080730;28;20040;-82
2022/08/04 13:13:16;;;;;;;7.80;2.00;;;36.90;50.30;;;;;;5077932;28;20057;-81
2022/08/04 13:15:42;;;;;;;4.18;2.08;;;37.20;49.30;;;;;;5078440;28;20042;-81
2022/08/04 13:18:10;;;;;;;2.38;2.10;;;37.50;48.20;;;;;;5081611;28;20028;-81
2022/08/04 13:20:38;;;;;;;2.58;2.05;;;37.70;48.80;;;;;;5083156;28;20035;-81
2022/08/04 13:23:06;;;;;;;5.25;1.90;;;38.00;48.10;;;;;;5094698;28;20071;-82
2022/08/04 13:25:38;;;;;;;2.72;2.33;;;38.20;49.00;;;;;;5095160;28;20035;-82
2022/08/04 13:28:07;;;;;;;6.68;2.00;;;38.30;47.90;;;;;;5099574;28;20120;-81
2022/08/04 13:30:33;;;;;;;1.75;1.65;;;38.20;47.60;;;;;;5091757;28;20465;-83
2022/08/04 13:33:03;;;;;;;8.65;2.10;;;38.30;47.60;;;;;;5086460;28;20032;-82
2022/08/04 13:35:31;;;;;;;3.08;2.20;;;38.40;48.00;;;;;;5093898;28;20031;-83
2022/08/04 13:37:58;;;;;;;2.30;2.10;;;38.60;47.40;;;;;;5110180;28;20061;-82
2022/08/04 13:40:25;;;;;;;3.75;1.88;;;38.70;47.20;;;;;;5086485;28;20035;-82
2022/08/04 13:42:53;;;;;;;3.80;1.98;;;38.90;47.70;;;;;;5096802;28;20036;-81